Time;durP1;ratioP1;P1;durP2;ratioP2;P2;SDS_P1;SDS_P2;PMS_P1;PMS_P2;Temp;Humidity;BMP_temperature;BMP_pressure;BME280_temperature;BME280_humidity;BME280_pressure;Samples;Min_cycle;Max_cycle;Signal;HPM_P1;HPM_P2
2024/01/09 00:01:09;;;;;;;1999.90;999.90;;;;;;;;;;4999679;28;20054;-83
2024/01/09 00:03:36;;;;;;;1999.90;999.90;;;;;;;;;;4997564;28;20057;-83
2024/01/09 00:06:04;;;;;;;1999.90;999.90;;;;;;;;;;4993857;28;20058;-84
2024/01/09 00:08:32;;;;;;;1999.90;999.90;;;;;;;;;;5005507;28;20137;-91
2024/01/09 00:11:00;;;;;;;1999.90;999.90;;;;;;;;;;4993576;28;20061;-90
2024/01/09 00:13:27;;;;;;;1999.90;999.90;;;;;;;;;;4995581;28;20109;-91
2024/01/09 00:15:53;;;;;;;1999.90;999.90;;;;;;;;;;5006673;28;20414;-92
2024/01/09 00:18:20;;;;;;;1999.90;999.90;;;;;;;;;;5005377;28;20137;-91
2024/01/09 00:21:02;;;;;;;1999.90;999.90;;;;;;;;;;5006571;28;20053;-91
2024/01/09 00:23:29;;;;;;;1999.90;999.90;;;;;;;;;;5004551;28;20072;-91
2024/01/09 00:25:59;;;;;;;1999.90;999.90;;;;;;;;;;4986219;28;20041;-90
2024/01/09 00:28:27;;;;;;;1999.90;999.90;;;;;;;;;;4982770;28;20117;-89
2024/01/09 00:30:56;;;;;;;1999.90;999.90;;;;;;;;;;4972391;28;20049;-89
2024/01/09 00:33:22;;;;;;;1999.90;999.90;;;;;;;;;;5006623;28;20061;-91
2024/01/09 00:35:49;;;;;;;1999.90;999.90;;;;;;;;;;5001308;28;20046;-91
2024/01/09 00:38:16;;;;;;;1999.90;999.90;;;;;;;;;;5002858;28;20077;-84
2024/01/09 00:40:44;;;;;;;1999.90;999.90;;;;;;;;;;4985426;28;20054;-82
2024/01/09 00:43:12;;;;;;;1999.90;999.90;;;;;;;;;;4998172;28;20056;-83
2024/01/09 00:45:39;;;;;;;1999.90;999.90;;;;;;;;;;4994256;28;20057;-83
2024/01/09 00:48:07;;;;;;;1999.90;999.90;;;;;;;;;;4982532;28;20524;-82
2024/01/09 00:50:34;;;;;;;1999.90;999.90;;;;;;;;;;5000193;28;20708;-83
2024/01/09 00:53:01;;;;;;;1999.90;999.90;;;;;;;;;;4984078;28;20058;-82
2024/01/09 00:55:27;;;;;;;1999.90;999.90;;;;;;;;;;5001022;28;20050;-83
2024/01/09 00:57:54;;;;;;;1999.90;999.90;;;;;;;;;;4979822;28;20049;-82
2024/01/09 01:00:23;;;;;;;1999.90;999.90;;;;;;;;;;4997809;28;20565;-82
2024/01/09 01:02:50;;;;;;;1999.90;999.90;;;;;;;;;;4991097;28;20057;-81
2024/01/09 01:05:19;;;;;;;1999.90;999.90;;;;;;;;;;4994665;28;20054;-82
2024/01/09 01:07:46;;;;;;;1999.90;999.90;;;;;;;;;;4994937;28;20053;-82
2024/01/09 01:10:13;;;;;;;1999.90;999.90;;;;;;;;;;4998569;28;20422;-82
2024/01/09 01:12:42;;;;;;;1999.90;999.90;;;;;;;;;;4999356;28;20061;-83
2024/01/09 01:15:11;;;;;;;1999.90;999.90;;;;;;;;;;4980803;28;20137;-83
2024/01/09 01:17:40;;;;;;;1999.90;999.90;;;;;;;;;;5000825;28;20107;-90
2024/01/09 01:20:13;;;;;;;1999.90;999.90;;;;;;;;;;5003880;28;20082;-90
2024/01/09 01:22:41;;;;;;;1999.90;999.90;;;;;;;;;;5011814;28;20118;-90
2024/01/09 01:25:09;;;;;;;1999.90;999.90;;;;;;;;;;5001821;28;20050;-90
2024/01/09 01:27:36;;;;;;;1999.90;999.90;;;;;;;;;;5011772;28;20053;-90
2024/01/09 01:30:03;;;;;;;1999.90;999.90;;;;;;;;;;4997728;28;20046;-89
2024/01/09 01:32:29;;;;;;;1999.90;999.90;;;;;;;;;;4997775;28;20058;-92
2024/01/09 01:34:58;;;;;;;1999.90;999.90;;;;;;;;;;5016272;28;20117;-90
2024/01/09 01:37:25;;;;;;;1999.90;999.90;;;;;;;;;;4982029;28;20128;-88
2024/01/09 01:39:52;;;;;;;1999.90;999.90;;;;;;;;;;5000804;28;20128;-91
2024/01/09 01:42:19;;;;;;;1999.90;999.90;;;;;;;;;;5007685;28;20054;-90
2024/01/09 01:44:46;;;;;;;1999.90;999.90;;;;;;;;;;4993052;28;20054;-90
2024/01/09 01:47:14;;;;;;;1999.90;999.90;;;;;;;;;;5000077;28;20050;-90
2024/01/09 01:49:47;;;;;;;1999.90;999.90;;;;;;;;;;5003227;28;20054;-90
2024/01/09 01:52:18;;;;;;;1999.90;999.90;;;;;;;;;;5009739;28;20418;-88
2024/01/09 01:54:45;;;;;;;1999.90;999.90;;;;;;;;;;4990654;28;20058;-89
2024/01/09 01:57:14;;;;;;;1999.90;999.90;;;;;;;;;;4999686;28;20058;-89
2024/01/09 01:59:44;;;;;;;1999.90;999.90;;;;;;;;;;5006092;28;20042;-89
2024/01/09 02:02:12;;;;;;;1999.90;999.90;;;;;;;;;;5008649;28;20100;-90
2024/01/09 02:04:40;;;;;;;1999.90;999.90;;;;;;;;;;5004247;28;20046;-90
2024/01/09 02:07:07;;;;;;;1999.90;999.90;;;;;;;;;;5008093;28;20054;-89
2024/01/09 02:09:36;;;;;;;1999.90;999.90;;;;;;;;;;5006829;28;20042;-91
2024/01/09 02:12:02;;;;;;;1999.90;999.90;;;;;;;;;;5010323;28;20054;-89
2024/01/09 02:14:29;;;;;;;1999.90;999.90;;;;;;;;;;5003500;28;20153;-89
2024/01/09 02:16:56;;;;;;;1999.90;999.90;;;;;;;;;;4990516;28;20050;-90
2024/01/09 02:19:22;;;;;;;1999.90;999.90;;;;;;;;;;5000528;28;20062;-90
2024/01/09 02:21:50;;;;;;;1999.90;999.90;;;;;;;;;;5007007;28;20057;-89
2024/01/09 02:24:17;;;;;;;1999.90;999.90;;;;;;;;;;4979579;28;20083;-90
2024/01/09 02:26:47;;;;;;;1999.90;999.90;;;;;;;;;;4996824;28;20073;-90
2024/01/09 02:29:17;;;;;;;1999.90;999.90;;;;;;;;;;4985383;28;20143;-83
2024/01/09 02:31:46;;;;;;;1999.90;999.90;;;;;;;;;;4980576;28;20348;-83
2024/01/09 02:34:14;;;;;;;1999.90;999.90;;;;;;;;;;4996630;28;20100;-82
2024/01/09 02:36:41;;;;;;;1999.90;999.90;;;;;;;;;;4997962;28;20046;-83
2024/01/09 02:39:07;;;;;;;1999.90;999.90;;;;;;;;;;4999525;28;20049;-83
2024/01/09 02:41:37;;;;;;;1999.90;999.90;;;;;;;;;;4999080;28;20425;-83
2024/01/09 02:44:04;;;;;;;1999.90;999.90;;;;;;;;;;4998225;28;20061;-84
2024/01/09 02:46:30;;;;;;;1999.90;999.90;;;;;;;;;;4978011;28;20502;-82
2024/01/09 02:48:58;;;;;;;1999.90;999.90;;;;;;;;;;4999840;28;20494;-83
2024/01/09 02:51:25;;;;;;;1999.90;999.90;;;;;;;;;;5001882;28;20056;-84
2024/01/09 02:53:52;;;;;;;1999.90;999.90;;;;;;;;;;4982838;28;20457;-83
2024/01/09 02:56:19;;;;;;;1999.90;999.90;;;;;;;;;;4994839;28;20647;-84
2024/01/09 02:58:46;;;;;;;1999.90;999.90;;;;;;;;;;5002135;28;20057;-90
2024/01/09 03:01:13;;;;;;;1999.90;999.90;;;;;;;;;;4986157;28;20062;-90
2024/01/09 03:03:40;;;;;;;1999.90;999.90;;;;;;;;;;5002914;28;20064;-90
2024/01/09 03:06:08;;;;;;;1999.90;999.90;;;;;;;;;;5004217;28;20084;-90
2024/01/09 03:08:35;;;;;;;1999.90;999.90;;;;;;;;;;4992704;28;20050;-89
2024/01/09 03:11:01;;;;;;;1999.90;999.90;;;;;;;;;;5002034;28;20050;-90
2024/01/09 03:13:28;;;;;;;1999.90;999.90;;;;;;;;;;4995241;28;20053;-90
2024/01/09 03:15:55;;;;;;;1999.90;999.90;;;;;;;;;;4988049;28;20580;-90
2024/01/09 03:18:25;;;;;;;1999.90;999.90;;;;;;;;;;4989668;28;20042;-91
2024/01/09 03:20:51;;;;;;;1999.90;999.90;;;;;;;;;;5007684;28;20078;-90
2024/01/09 03:23:20;;;;;;;1999.90;999.90;;;;;;;;;;5009197;28;20391;-90
2024/01/09 03:25:47;;;;;;;1999.90;999.90;;;;;;;;;;4983645;28;20081;-90
2024/01/09 03:28:14;;;;;;;1999.90;999.90;;;;;;;;;;5000563;28;20108;-89
2024/01/09 03:30:42;;;;;;;1999.90;999.90;;;;;;;;;;5007972;28;20065;-91
2024/01/09 03:33:08;;;;;;;1999.90;999.90;;;;;;;;;;5007717;28;20050;-90
2024/01/09 03:35:35;;;;;;;1999.90;999.90;;;;;;;;;;4975569;28;20054;-91
2024/01/09 03:38:02;;;;;;;1999.90;999.90;;;;;;;;;;4989364;28;20081;-91
2024/01/09 03:40:30;;;;;;;1999.90;999.90;;;;;;;;;;4994684;28;20050;-90
2024/01/09 03:42:58;;;;;;;1999.90;999.90;;;;;;;;;;4982837;28;20061;-89
2024/01/09 03:45:25;;;;;;;1999.90;999.90;;;;;;;;;;5003119;28;20489;-89
2024/01/09 03:47:52;;;;;;;1999.90;999.90;;;;;;;;;;4979095;28;20050;-90
2024/01/09 03:50:20;;;;;;;1999.90;999.90;;;;;;;;;;5011413;28;20108;-88
2024/01/09 03:52:47;;;;;;;1999.90;999.90;;;;;;;;;;4989985;28;20066;-91
2024/01/09 03:55:15;;;;;;;1999.90;999.90;;;;;;;;;;5001769;28;20530;-89
2024/01/09 03:57:44;;;;;;;1999.90;999.90;;;;;;;;;;4978163;28;20575;-90
2024/01/09 04:00:14;;;;;;;1999.90;999.90;;;;;;;;;;5004431;28;20049;-89
2024/01/09 04:02:41;;;;;;;1999.90;999.90;;;;;;;;;;4988917;28;20049;-90
2024/01/09 04:05:08;;;;;;;1999.90;999.90;;;;;;;;;;5002255;28;20050;-89
2024/01/09 04:07:36;;;;;;;1999.90;999.90;;;;;;;;;;4981736;28;20487;-90
2024/01/09 04:10:03;;;;;;;1999.90;999.90;;;;;;;;;;5000595;28;20500;-83
2024/01/09 04:12:31;;;;;;;1999.90;999.90;;;;;;;;;;4995306;28;20064;-82
2024/01/09 04:14:59;;;;;;;1999.90;999.90;;;;;;;;;;4988394;28;20046;-83
2024/01/09 04:17:25;;;;;;;1999.90;999.90;;;;;;;;;;4988424;28;20043;-83
2024/01/09 04:19:52;;;;;;;1999.90;999.90;;;;;;;;;;4976665;28;20426;-83
2024/01/09 04:22:18;;;;;;;1999.90;999.90;;;;;;;;;;5001324;28;20054;-83
2024/01/09 04:24:46;;;;;;;1999.90;999.90;;;;;;;;;;4996385;28;20049;-83
2024/01/09 04:27:12;;;;;;;1999.90;999.90;;;;;;;;;;4982400;28;20064;-84
2024/01/09 04:29:39;;;;;;;1999.90;999.90;;;;;;;;;;4998056;28;20060;-84
2024/01/09 04:32:10;;;;;;;1999.90;999.90;;;;;;;;;;4999129;28;20065;-83
2024/01/09 04:34:38;;;;;;;1999.90;999.90;;;;;;;;;;4980304;28;20137;-82
2024/01/09 04:37:09;;;;;;;1999.90;999.90;;;;;;;;;;5000894;28;20050;-83
2024/01/09 04:39:36;;;;;;;1999.90;999.90;;;;;;;;;;4980760;28;20053;-83
2024/01/09 04:42:02;;;;;;;1999.90;999.90;;;;;;;;;;4998853;28;20430;-84
2024/01/09 04:44:29;;;;;;;1999.90;999.90;;;;;;;;;;4995323;28;20053;-83
2024/01/09 04:46:56;;;;;;;1999.90;999.90;;;;;;;;;;4998276;28;20066;-83
2024/01/09 04:49:35;;;;;;;1999.90;999.90;;;;;;;;;;5002029;28;20050;-88
2024/01/09 04:52:02;;;;;;;1999.90;999.90;;;;;;;;;;4996797;28;20502;-86
2024/01/09 04:54:29;;;;;;;1999.90;999.90;;;;;;;;;;4965418;28;20406;-86
2024/01/09 04:56:56;;;;;;;1999.90;999.90;;;;;;;;;;4992816;28;20042;-88
2024/01/09 04:59:23;;;;;;;1999.90;999.90;;;;;;;;;;5002082;28;20121;-88
2024/01/09 05:01:50;;;;;;;1999.90;999.90;;;;;;;;;;4983794;28;20056;-88
2024/01/09 05:04:17;;;;;;;1999.90;999.90;;;;;;;;;;4992313;28;20258;-88
2024/01/09 05:06:46;;;;;;;1999.90;999.90;;;;;;;;;;4994164;28;20046;-88
2024/01/09 05:09:14;;;;;;;1999.90;999.90;;;;;;;;;;4992900;28;20051;-89
2024/01/09 05:11:42;;;;;;;1999.90;999.90;;;;;;;;;;4987749;28;20062;-88
2024/01/09 05:14:12;;;;;;;1999.90;999.90;;;;;;;;;;4983503;28;20057;-89
2024/01/09 05:16:39;;;;;;;1999.90;999.90;;;;;;;;;;4997864;28;20050;-89
2024/01/09 05:19:06;;;;;;;1999.90;999.90;;;;;;;;;;4974869;28;20042;-89
2024/01/09 05:21:35;;;;;;;1999.90;999.90;;;;;;;;;;4995020;28;20080;-89
2024/01/09 05:24:03;;;;;;;1999.90;999.90;;;;;;;;;;5003468;28;20050;-88
2024/01/09 05:26:30;;;;;;;1999.90;999.90;;;;;;;;;;4967526;28;20081;-88
2024/01/09 05:28:57;;;;;;;1999.90;999.90;;;;;;;;;;5008366;28;20065;-88
2024/01/09 05:31:24;;;;;;;1999.90;999.90;;;;;;;;;;5010723;28;20054;-90
2024/01/09 05:33:52;;;;;;;1999.90;999.90;;;;;;;;;;4990644;28;20173;-88
2024/01/09 05:36:22;;;;;;;1999.90;999.90;;;;;;;;;;5002744;28;20552;-88
2024/01/09 05:38:50;;;;;;;1999.90;999.90;;;;;;;;;;4994733;28;20069;-89
2024/01/09 05:41:21;;;;;;;1999.90;999.90;;;;;;;;;;4995330;28;20137;-88
2024/01/09 05:43:48;;;;;;;1999.90;999.90;;;;;;;;;;4999708;28;20046;-90
2024/01/09 05:46:14;;;;;;;1999.90;999.90;;;;;;;;;;4998320;28;20077;-89
2024/01/09 05:48:43;;;;;;;1999.90;999.90;;;;;;;;;;5003517;28;20144;-88
2024/01/09 05:51:10;;;;;;;1999.90;999.90;;;;;;;;;;4988591;28;20055;-89
2024/01/09 05:53:37;;;;;;;1999.90;999.90;;;;;;;;;;5010948;28;20058;-88
2024/01/09 05:56:06;;;;;;;1999.90;999.90;;;;;;;;;;5005411;28;20052;-88
2024/01/09 05:58:35;;;;;;;1999.90;999.90;;;;;;;;;;5002613;28;20462;-88
2024/01/09 06:01:03;;;;;;;1999.90;999.90;;;;;;;;;;5008815;28;20057;-87
2024/01/09 06:03:30;;;;;;;1999.90;999.90;;;;;;;;;;5003031;28;20052;-88
2024/01/09 06:05:57;;;;;;;1999.90;999.90;;;;;;;;;;4991498;28;20061;-89
2024/01/09 06:08:27;;;;;;;1999.90;999.90;;;;;;;;;;4989983;28;20053;-89
2024/01/09 06:10:55;;;;;;;1999.90;999.90;;;;;;;;;;5009308;28;20089;-89
2024/01/09 06:13:22;;;;;;;1999.90;999.90;;;;;;;;;;5011700;28;20052;-89
2024/01/09 06:15:50;;;;;;;1999.90;999.90;;;;;;;;;;4987537;28;20513;-88
2024/01/09 06:18:17;;;;;;;1999.90;999.90;;;;;;;;;;4988472;28;20096;-89
2024/01/09 06:20:44;;;;;;;1999.90;999.90;;;;;;;;;;5006832;28;20423;-87
2024/01/09 06:23:11;;;;;;;1999.90;999.90;;;;;;;;;;4987929;28;20052;-90
2024/01/09 06:25:37;;;;;;;1999.90;999.90;;;;;;;;;;5006715;28;20057;-89
2024/01/09 06:28:05;;;;;;;1999.90;999.90;;;;;;;;;;5007141;28;20164;-88
2024/01/09 06:30:34;;;;;;;1999.90;999.90;;;;;;;;;;5007620;28;20108;-89
2024/01/09 06:33:02;;;;;;;1999.90;999.90;;;;;;;;;;4985720;28;20078;-87
2024/01/09 06:35:29;;;;;;;1999.90;999.90;;;;;;;;;;5010463;28;20272;-87
2024/01/09 06:37:55;;;;;;;1999.90;999.90;;;;;;;;;;4991120;28;20045;-88
2024/01/09 06:40:23;;;;;;;1999.90;999.90;;;;;;;;;;4987885;28;20046;-88
2024/01/09 06:42:50;;;;;;;1999.90;999.90;;;;;;;;;;5003445;28;20112;-89
2024/01/09 06:45:17;;;;;;;1999.90;999.90;;;;;;;;;;5001857;28;20060;-88
2024/01/09 06:47:44;;;;;;;1999.90;999.90;;;;;;;;;;5008968;28;20060;-89
2024/01/09 06:50:32;;;;;;;1999.90;999.90;;;;;;;;;;5006425;28;20456;-88
2024/01/09 06:53:02;;;;;;;1999.90;999.90;;;;;;;;;;4975683;28;20697;-88
2024/01/09 06:55:30;;;;;;;1999.90;999.90;;;;;;;;;;5007559;28;20053;-89
2024/01/09 06:57:57;;;;;;;1999.90;999.90;;;;;;;;;;4993652;28;20060;-89
2024/01/09 07:00:35;;;;;;;1999.90;999.90;;;;;;;;;;4974115;28;20064;-89
2024/01/09 07:03:04;;;;;;;1999.90;999.90;;;;;;;;;;5007866;28;20057;-89
2024/01/09 07:05:34;;;;;;;1999.90;999.90;;;;;;;;;;4997627;28;20128;-89
2024/01/09 07:08:00;;;;;;;1999.90;999.90;;;;;;;;;;4989788;28;20049;-89
2024/01/09 07:10:27;;;;;;;1999.90;999.90;;;;;;;;;;4994221;28;20049;-90
2024/01/09 07:12:55;;;;;;;1999.90;999.90;;;;;;;;;;4994650;28;20067;-89
2024/01/09 07:15:21;;;;;;;1999.90;999.90;;;;;;;;;;4997762;28;20057;-89
2024/01/09 07:17:48;;;;;;;1999.90;999.90;;;;;;;;;;5004930;28;20054;-88
2024/01/09 07:21:02;;;;;;;1999.90;999.90;;;;;;;;;;5013601;28;20061;-89
2024/01/09 07:23:31;;;;;;;1999.90;999.90;;;;;;;;;;4988908;28;20493;-89
2024/01/09 07:25:57;;;;;;;1999.90;999.90;;;;;;;;;;5006570;28;20476;-89
2024/01/09 07:28:24;;;;;;;1999.90;999.90;;;;;;;;;;5011021;28;20058;-89
2024/01/09 07:30:52;;;;;;;1999.90;999.90;;;;;;;;;;5005118;28;20053;-88
2024/01/09 07:33:21;;;;;;;1999.90;999.90;;;;;;;;;;4969372;28;20181;-90
2024/01/09 07:35:48;;;;;;;1999.90;999.90;;;;;;;;;;5006755;28;20054;-88
2024/01/09 07:38:21;;;;;;;1999.90;999.90;;;;;;;;;;4994482;28;20137;-82
2024/01/09 07:40:49;;;;;;;1999.90;999.90;;;;;;;;;;5001667;28;20086;-82
2024/01/09 07:43:17;;;;;;;1999.90;999.90;;;;;;;;;;4991627;28;20092;-82
2024/01/09 07:45:44;;;;;;;1999.90;999.90;;;;;;;;;;4985085;28;20045;-83
2024/01/09 07:48:11;;;;;;;1999.90;999.90;;;;;;;;;;4998060;28;20058;-82
2024/01/09 07:50:43;;;;;;;1999.90;999.90;;;;;;;;;;4980884;28;20060;-82
2024/01/09 07:53:09;;;;;;;1999.90;999.90;;;;;;;;;;4998179;28;20061;-82
2024/01/09 07:55:36;;;;;;;1999.90;999.90;;;;;;;;;;4999736;28;20054;-82
2024/01/09 07:58:06;;;;;;;1999.90;999.90;;;;;;;;;;4999906;28;20053;-82
2024/01/09 08:00:33;;;;;;;1999.90;999.90;;;;;;;;;;5000825;28;20049;-81
2024/01/09 08:02:59;;;;;;;1999.90;999.90;;;;;;;;;;5000635;28;20065;-81
2024/01/09 08:05:26;;;;;;;1999.90;999.90;;;;;;;;;;5000914;28;20045;-81
2024/01/09 08:07:53;;;;;;;1999.90;999.90;;;;;;;;;;4999658;28;20072;-81
2024/01/09 08:10:19;;;;;;;1999.90;999.90;;;;;;;;;;4997575;28;20482;-82
2024/01/09 08:12:46;;;;;;;1999.90;999.90;;;;;;;;;;4996011;28;20053;-81
2024/01/09 08:15:16;;;;;;;1999.90;999.90;;;;;;;;;;5000094;28;20054;-81
2024/01/09 08:17:43;;;;;;;1999.90;999.90;;;;;;;;;;5000005;28;20050;-81
2024/01/09 08:20:11;;;;;;;1999.90;999.90;;;;;;;;;;4989986;28;20744;-81
2024/01/09 08:22:38;;;;;;;1999.90;999.90;;;;;;;;;;4967137;28;20137;-81
2024/01/09 08:25:08;;;;;;;1999.90;999.90;;;;;;;;;;4999579;28;20076;-82
2024/01/09 08:27:35;;;;;;;1999.90;999.90;;;;;;;;;;4964575;28;20045;-82
2024/01/09 08:30:02;;;;;;;1999.90;999.90;;;;;;;;;;5001198;28;20421;-81
2024/01/09 08:32:30;;;;;;;1999.90;999.90;;;;;;;;;;4998195;28;20129;-81
2024/01/09 08:34:56;;;;;;;1999.90;999.90;;;;;;;;;;4999445;28;20889;-82
2024/01/09 08:37:24;;;;;;;1999.90;999.90;;;;;;;;;;4988977;28;20069;-81
2024/01/09 08:39:51;;;;;;;1999.90;999.90;;;;;;;;;;4979392;28;20387;-81
2024/01/09 08:42:18;;;;;;;1999.90;999.90;;;;;;;;;;4961441;28;20076;-81
2024/01/09 08:44:44;;;;;;;1999.90;999.90;;;;;;;;;;4997549;28;20052;-81
2024/01/09 08:47:12;;;;;;;1999.90;999.90;;;;;;;;;;4999157;28;20056;-82
2024/01/09 08:49:50;;;;;;;1999.90;999.90;;;;;;;;;;4992239;28;20133;-89
2024/01/09 08:52:21;;;;;;;1999.90;999.90;;;;;;;;;;5000053;28;20054;-87
2024/01/09 08:54:48;;;;;;;1999.90;999.90;;;;;;;;;;4987065;28;20580;-88
2024/01/09 08:57:15;;;;;;;1999.90;999.90;;;;;;;;;;4986837;28;20057;-91
2024/01/09 08:59:41;;;;;;;1999.90;999.90;;;;;;;;;;4994222;28;20050;-88
2024/01/09 09:02:09;;;;;;;1999.90;999.90;;;;;;;;;;5005656;28;20053;-90
2024/01/09 09:04:36;;;;;;;1999.90;999.90;;;;;;;;;;4990759;28;20049;-90
2024/01/09 09:07:04;;;;;;;1999.90;999.90;;;;;;;;;;5005149;28;20045;-89
2024/01/09 09:09:35;;;;;;;1999.90;999.90;;;;;;;;;;5007913;28;20505;-93
2024/01/09 09:12:01;;;;;;;1999.90;999.90;;;;;;;;;;5008660;28;20056;-92
2024/01/09 09:14:29;;;;;;;1999.90;999.90;;;;;;;;;;4999495;28;20422;-93
2024/01/09 09:16:57;;;;;;;1999.90;999.90;;;;;;;;;;5009547;28;20053;-91
2024/01/09 09:19:24;;;;;;;1999.90;999.90;;;;;;;;;;5003086;28;20113;-88
2024/01/09 09:21:52;;;;;;;1999.90;999.90;;;;;;;;;;4994922;28;20053;-90
2024/01/09 09:24:21;;;;;;;1999.90;999.90;;;;;;;;;;5007312;28;20081;-90
2024/01/09 09:26:48;;;;;;;1999.90;999.90;;;;;;;;;;4999102;28;20125;-90
2024/01/09 09:29:15;;;;;;;1999.90;999.90;;;;;;;;;;4981494;28;20050;-82
2024/01/09 09:31:45;;;;;;;1999.90;999.90;;;;;;;;;;4983190;28;20050;-82
2024/01/09 09:34:13;;;;;;;1999.90;999.90;;;;;;;;;;5002760;28;20057;-83
2024/01/09 09:36:39;;;;;;;1999.90;999.90;;;;;;;;;;5003229;28;20053;-82
2024/01/09 09:39:06;;;;;;;1999.90;999.90;;;;;;;;;;5001015;28;20051;-82
2024/01/09 09:41:38;;;;;;;1999.90;999.90;;;;;;;;;;4989722;28;20050;-82
2024/01/09 09:44:06;;;;;;;1999.90;999.90;;;;;;;;;;5000477;28;20082;-82
2024/01/09 09:46:35;;;;;;;1999.90;999.90;;;;;;;;;;4983809;28;20581;-82
2024/01/09 09:49:03;;;;;;;1999.90;999.90;;;;;;;;;;4976162;28;20054;-83
2024/01/09 09:51:30;;;;;;;1999.90;999.90;;;;;;;;;;4987187;28;20506;-84
2024/01/09 09:53:57;;;;;;;1999.90;999.90;;;;;;;;;;4986490;28;20150;-83
2024/01/09 09:56:25;;;;;;;1999.90;999.90;;;;;;;;;;5002196;28;20054;-82
2024/01/09 09:58:53;;;;;;;1999.90;999.90;;;;;;;;;;4991320;28;20054;-90
2024/01/09 10:01:23;;;;;;;1999.90;999.90;;;;;;;;;;5003275;28;20058;-90
2024/01/09 10:03:52;;;;;;;1999.90;999.90;;;;;;;;;;5013312;28;20062;-91
2024/01/09 10:06:19;;;;;;;1999.90;999.90;;;;;;;;;;5015044;28;20046;-89
2024/01/09 10:08:48;;;;;;;1999.90;999.90;;;;;;;;;;4995008;28;20113;-91
2024/01/09 10:11:15;;;;;;;1999.90;999.90;;;;;;;;;;4999419;28;20102;-93
2024/01/09 10:13:45;;;;;;;1999.90;999.90;;;;;;;;;;5018208;28;20057;-91
2024/01/09 10:16:13;;;;;;;1999.90;999.90;;;;;;;;;;5012741;28;20078;-94
2024/01/09 10:18:41;;;;;;;1999.90;999.90;;;;;;;;;;5010139;28;20054;-92
2024/01/09 10:21:26;;;;;;;1999.90;999.90;;;;;;;;;;5026607;28;20113;-93
2024/01/09 10:23:55;;;;;;;1999.90;999.90;;;;;;;;;;5017276;28;20046;-96
2024/01/09 10:26:25;;;;;;;1999.90;999.90;;;;;;;;;;5011970;28;20064;-94
2024/01/09 10:28:52;;;;;;;1999.90;999.90;;;;;;;;;;5007676;28;20057;-95
2024/01/09 10:31:21;;;;;;;1999.90;999.90;;;;;;;;;;5008011;28;20069;-95
2024/01/09 10:33:46;;;;;;;1999.90;999.90;;;;;;;;;;5011004;28;20048;-94
2024/01/09 10:36:13;;;;;;;1999.90;999.90;;;;;;;;;;5016196;28;20069;-95
2024/01/09 10:38:40;;;;;;;1999.90;999.90;;;;;;;;;;5017880;28;20069;-94
2024/01/09 10:41:16;;;;;;;1999.90;999.90;;;;;;;;;;5016786;28;20096;-95
2024/01/09 10:43:43;;;;;;;;;;;;;;;;;;5019232;28;20498;-96
2024/01/09 10:46:12;;;;;;;1999.90;999.90;;;;;;;;;;5021229;28;19922;-93
2024/01/09 10:48:41;;;;;;;1999.90;999.90;;;;;;;;;;5018183;28;20067;-95
2024/01/09 10:51:11;;;;;;;1999.90;999.90;;;;;;;;;;4991753;28;20049;-95
2024/01/09 10:53:40;;;;;;;1999.90;999.90;;;;;;;;;;5013022;28;20131;-91
2024/01/09 10:56:09;;;;;;;1999.90;999.90;;;;;;;;;;5006889;28;20050;-94
2024/01/09 10:58:36;;;;;;;1999.90;999.90;;;;;;;;;;4977946;28;20081;-96
2024/01/09 11:01:03;;;;;;;1999.90;999.90;;;;;;;;;;5015004;28;20133;-96
2024/01/09 11:03:30;;;;;;;1999.90;999.90;;;;;;;;;;5001777;28;20045;-95
2024/01/09 11:06:01;;;;;;;1999.90;999.90;;;;;;;;;;5014308;28;20114;-92
2024/01/09 11:08:30;;;;;;;1999.90;999.90;;;;;;;;;;5014100;28;20141;-82
2024/01/09 11:10:56;;;;;;;1999.90;999.90;;;;;;;;;;5000765;28;20088;-82
2024/01/09 11:13:23;;;;;;;1999.90;999.90;;;;;;;;;;4982658;28;20116;-82
2024/01/09 11:15:54;;;;;;;1999.90;999.90;;;;;;;;;;5000755;28;20050;-81
2024/01/09 11:18:22;;;;;;;1999.90;999.90;;;;;;;;;;4999737;28;20464;-82
2024/01/09 11:20:49;;;;;;;1999.90;999.90;;;;;;;;;;4999674;28;20105;-83
2024/01/09 11:24:01;;;;;;;1999.90;999.90;;;;;;;;;;4981926;28;20058;-82
2024/01/09 11:26:30;;;;;;;1999.90;999.90;;;;;;;;;;4985039;28;20767;-83
2024/01/09 11:28:59;;;;;;;1999.90;999.90;;;;;;;;;;4988477;28;20054;-83
2024/01/09 11:31:29;;;;;;;1999.90;999.90;;;;;;;;;;4999366;28;20145;-83
2024/01/09 11:34:01;;;;;;;1999.90;999.90;;;;;;;;;;4998858;28;20089;-88
2024/01/09 11:36:29;;;;;;;1999.90;999.90;;;;;;;;;;5005284;28;20111;-84
2024/01/09 11:38:59;;;;;;;1999.90;999.90;;;;;;;;;;4997946;28;20137;-84
2024/01/09 11:41:31;;;;;;;1999.90;999.90;;;;;;;;;;4987439;28;20050;-81
2024/01/09 11:44:00;;;;;;;1999.90;999.90;;;;;;;;;;4997203;28;20264;-82
2024/01/09 11:46:27;;;;;;;1999.90;999.90;;;;;;;;;;4990900;28;20052;-83
2024/01/09 11:48:54;;;;;;;1999.90;999.90;;;;;;;;;;5006246;28;20046;-91
2024/01/09 11:51:30;;;;;;;1999.90;999.90;;;;;;;;;;5007344;28;20133;-91
2024/01/09 11:53:59;;;;;;;1999.90;999.90;;;;;;;;;;5009728;28;20050;-93
2024/01/09 11:56:26;;;;;;;1999.90;999.90;;;;;;;;;;5010691;28;20242;-93
2024/01/09 11:58:53;;;;;;;1999.90;999.90;;;;;;;;;;5012393;28;20046;-93
2024/01/09 12:01:20;;;;;;;1999.90;999.90;;;;;;;;;;5019111;28;20141;-92
2024/01/09 12:03:54;;;;;;;1999.90;999.90;;;;;;;;;;4999868;28;20046;-92
2024/01/09 12:06:22;;;;;;;1999.90;999.90;;;;;;;;;;5012560;28;20060;-93
2024/01/09 12:08:48;;;;;;;1999.90;999.90;;;;;;;;;;5015607;28;20056;-92
2024/01/09 12:11:17;;;;;;;1999.90;999.90;;;;;;;;;;5014159;28;20073;-91
2024/01/09 12:13:45;;;;;;;1999.90;999.90;;;;;;;;;;5010227;28;20047;-93
2024/01/09 12:16:18;;;;;;;1999.90;999.90;;;;;;;;;;5003754;28;20097;-93
2024/01/09 12:18:50;;;;;;;1999.90;999.90;;;;;;;;;;4988737;28;20048;-83
2024/01/09 12:21:17;;;;;;;1999.90;999.90;;;;;;;;;;4982817;28;20051;-82
2024/01/09 12:23:45;;;;;;;1999.90;999.90;;;;;;;;;;4997668;28;20057;-84
2024/01/09 12:26:12;;;;;;;1999.90;999.90;;;;;;;;;;4998793;28;20144;-83
2024/01/09 12:28:40;;;;;;;1999.90;999.90;;;;;;;;;;4998701;28;20046;-83
2024/01/09 12:31:10;;;;;;;1999.90;999.90;;;;;;;;;;4983152;28;20062;-83
2024/01/09 12:33:38;;;;;;;1999.90;999.90;;;;;;;;;;4981160;28;20101;-84
2024/01/09 12:36:05;;;;;;;1999.90;999.90;;;;;;;;;;4994705;28;20057;-83
2024/01/09 12:38:33;;;;;;;1999.90;999.90;;;;;;;;;;4997129;28;20067;-84
2024/01/09 12:41:00;;;;;;;1999.90;999.90;;;;;;;;;;4999099;28;20050;-84
2024/01/09 12:43:27;;;;;;;1999.90;999.90;;;;;;;;;;4996669;28;20058;-83
2024/01/09 12:46:00;;;;;;;1999.90;999.90;;;;;;;;;;4984096;28;20395;-82
2024/01/09 12:48:27;;;;;;;1999.90;999.90;;;;;;;;;;4996350;28;20058;-82
2024/01/09 12:51:01;;;;;;;1999.90;999.90;;;;;;;;;;4997878;28;20129;-83
2024/01/09 12:53:30;;;;;;;1999.90;999.90;;;;;;;;;;4996408;28;20058;-81
2024/01/09 12:56:08;;;;;;;1999.90;999.90;;;;;;;;;;5001284;28;20058;-83
2024/01/09 12:58:38;;;;;;;1999.90;999.90;;;;;;;;;;4989947;28;20054;-95
2024/01/09 13:01:07;;;;;;;1999.90;999.90;;;;;;;;;;5009170;28;20050;-93
2024/01/09 13:03:34;;;;;;;1999.90;999.90;;;;;;;;;;4996205;28;20054;-90
2024/01/09 13:06:04;;;;;;;1999.90;999.90;;;;;;;;;;5005658;28;20150;-90
2024/01/09 13:08:31;;;;;;;1999.90;999.90;;;;;;;;;;5009379;28;20071;-92
2024/01/09 13:10:58;;;;;;;1999.90;999.90;;;;;;;;;;4996707;28;20056;-93
2024/01/09 13:13:25;;;;;;;1999.90;999.90;;;;;;;;;;5007304;28;20050;-92
2024/01/09 13:15:53;;;;;;;1999.90;999.90;;;;;;;;;;4993897;28;20052;-93
2024/01/09 13:18:23;;;;;;;1999.90;999.90;;;;;;;;;;5005250;28;20137;-91
2024/01/09 13:20:54;;;;;;;1999.90;999.90;;;;;;;;;;4992427;28;20053;-92
2024/01/09 13:23:22;;;;;;;1999.90;999.90;;;;;;;;;;4992702;28;20112;-91
2024/01/09 13:25:49;;;;;;;1999.90;999.90;;;;;;;;;;4989537;28;20046;-91
2024/01/09 13:28:16;;;;;;;1999.90;999.90;;;;;;;;;;5009659;28;20140;-91
2024/01/09 13:30:43;;;;;;;1999.90;999.90;;;;;;;;;;5019659;28;20058;-93
2024/01/09 13:33:10;;;;;;;1999.90;999.90;;;;;;;;;;5013930;28;20058;-92
2024/01/09 13:35:39;;;;;;;1999.90;999.90;;;;;;;;;;5013912;28;20060;-90
2024/01/09 13:38:06;;;;;;;1999.90;999.90;;;;;;;;;;5004699;28;20054;-91
2024/01/09 13:40:33;;;;;;;1999.90;999.90;;;;;;;;;;4983173;28;20085;-92
2024/01/09 13:43:00;;;;;;;1999.90;999.90;;;;;;;;;;5005862;28;20104;-94
2024/01/09 13:45:26;;;;;;;1999.90;999.90;;;;;;;;;;5009894;28;20062;-95
2024/01/09 13:47:55;;;;;;;1999.90;999.90;;;;;;;;;;5009579;28;20056;-94